createdAt,value
2018-02-24T00:00:16.398Z,69.61
2018-02-24T00:02:43.908Z,69.96
2018-02-24T00:05:11.387Z,70.21
2018-02-24T00:07:38.869Z,70.46
2018-02-24T00:10:06.344Z,70.52
2018-02-24T00:12:33.961Z,70.60
2018-02-24T00:15:01.470Z,70.67
2018-02-24T00:17:28.958Z,70.83
2018-02-24T00:19:56.457Z,70.81
2018-02-24T00:22:23.914Z,70.90
2018-02-24T00:24:51.457Z,70.99
2018-02-24T00:27:19.144Z,70.98
2018-02-24T00:29:46.665Z,70.99
2018-02-24T00:32:14.146Z,70.95
2018-02-24T00:34:41.720Z,70.94
2018-02-24T00:37:09.193Z,70.83
2018-02-24T00:39:36.684Z,70.73
2018-02-24T00:42:04.178Z,70.85
2018-02-24T00:44:31.648Z,70.87
2018-02-24T00:46:59.125Z,71.01
2018-02-24T00:49:26.613Z,70.99
2018-02-24T00:51:54.079Z,71.01
2018-02-24T00:54:21.550Z,70.83
2018-02-24T00:56:49.135Z,70.70
2018-02-24T00:59:16.605Z,70.66
2018-02-24T01:01:44.078Z,70.58
2018-02-24T01:04:11.629Z,70.25
2018-02-24T01:06:39.099Z,70.23
2018-02-24T01:09:06.550Z,70.45
2018-02-24T01:11:34.046Z,70.45
2018-02-24T01:14:01.557Z,70.43
2018-02-24T01:16:29.028Z,70.18
2018-02-24T01:18:56.507Z,69.68
2018-02-24T01:21:24.018Z,69.99
2018-02-24T01:23:51.486Z,69.99
2018-02-24T01:26:18.959Z,69.73
2018-02-24T01:28:46.448Z,69.59
2018-02-24T01:31:13.913Z,68.68
2018-02-24T01:33:41.471Z,68.64
2018-02-24T01:36:08.945Z,69.00
2018-02-24T01:38:36.414Z,69.43
2018-02-24T01:41:03.890Z,69.39
2018-02-24T01:43:31.381Z,69.26
2018-02-24T01:45:58.852Z,69.82
2018-02-24T01:48:26.415Z,69.54
2018-02-24T01:50:53.927Z,69.21
2018-02-24T01:53:21.394Z,69.12
2018-02-24T01:55:48.898Z,69.02
2018-02-24T01:58:16.461Z,69.32
2018-02-24T02:00:43.955Z,68.79
2018-02-24T02:03:11.416Z,68.56
2018-02-24T02:05:38.902Z,68.41
2018-02-24T02:08:06.377Z,68.30
2018-02-24T02:10:33.833Z,68.70
2018-02-24T02:13:01.407Z,68.73
2018-02-24T02:15:28.865Z,68.69
2018-02-24T02:17:56.335Z,68.31
2018-02-24T02:20:23.822Z,68.13
2018-02-24T02:22:51.326Z,67.56
2018-02-24T02:25:18.895Z,67.43
2018-02-24T02:27:46.458Z,67.48
2018-02-24T02:30:13.915Z,67.15
2018-02-24T02:32:41.383Z,67.01
2018-02-24T02:35:08.927Z,66.55
2018-02-24T02:37:36.379Z,66.34
2018-02-24T02:40:03.839Z,65.46
2018-02-24T02:42:31.318Z,65.61
2018-02-24T02:44:58.779Z,66.46
2018-02-24T02:47:26.305Z,67.02
2018-02-24T02:49:53.803Z,67.42
2018-02-24T02:52:21.267Z,67.83
2018-02-24T02:54:48.777Z,68.23
2018-02-24T02:57:16.343Z,68.18
2018-02-24T02:59:43.808Z,68.00
2018-02-24T03:02:11.276Z,67.98
2018-02-24T03:04:38.807Z,67.26
2018-02-24T03:07:06.275Z,67.41
2018-02-24T03:09:33.782Z,67.48
2018-02-24T03:12:01.239Z,67.37
2018-02-24T03:14:28.694Z,67.61
2018-02-24T03:16:56.159Z,67.46
2018-02-24T03:19:23.658Z,66.95
2018-02-24T03:21:51.137Z,66.67
2018-02-24T03:24:18.601Z,66.28
2018-02-24T03:26:46.062Z,66.24
2018-02-24T03:29:13.577Z,66.47
2018-02-24T03:31:41.048Z,66.83
2018-02-24T03:34:08.602Z,67.08
2018-02-24T03:36:36.167Z,67.58
2018-02-24T03:39:03.660Z,68.76
2018-02-24T03:41:31.127Z,69.28
2018-02-24T03:43:58.635Z,69.56
2018-02-24T03:46:26.554Z,69.76
2018-02-24T03:48:54.024Z,69.81
2018-02-24T03:51:21.473Z,70.03
2018-02-24T03:53:48.957Z,70.17
2018-02-24T03:56:16.411Z,70.14
2018-02-24T03:58:43.878Z,70.26
2018-02-24T04:01:11.358Z,69.89
2018-02-24T04:03:38.906Z,70.13
2018-02-24T04:06:06.358Z,70.54
2018-02-24T04:08:33.867Z,71.20
2018-02-24T04:11:01.339Z,71.74
2018-02-24T04:13:28.818Z,72.41
2018-02-24T04:15:56.270Z,72.65
2018-02-24T04:18:23.726Z,73.09
2018-02-24T04:20:51.219Z,73.62
2018-02-24T04:23:18.675Z,74.11
2018-02-24T04:25:46.139Z,74.66
2018-02-24T04:28:13.605Z,75.34
2018-02-24T04:30:41.096Z,75.71
2018-02-24T04:33:08.554Z,76.00
2018-02-24T04:35:36.058Z,76.36
2018-02-24T04:38:03.606Z,76.36
2018-02-24T04:40:31.070Z,76.65
2018-02-24T04:42:58.524Z,76.91
2018-02-24T04:45:26.006Z,76.84
2018-02-24T04:47:53.589Z,77.16
2018-02-24T04:50:21.037Z,77.48
2018-02-24T04:52:48.508Z,77.69
2018-02-24T04:55:16.010Z,77.93
2018-02-24T04:57:43.482Z,78.37
2018-02-24T05:00:10.933Z,78.79
2018-02-24T05:02:38.419Z,78.84
2018-02-24T05:05:05.945Z,79.03
2018-02-24T05:07:33.409Z,79.43
2018-02-24T05:10:00.889Z,79.64
2018-02-24T05:12:28.341Z,80.01
2018-02-24T05:14:55.825Z,80.09
2018-02-24T05:17:23.284Z,80.36
2018-02-24T05:19:50.743Z,80.70
2018-02-24T05:22:18.242Z,80.93
2018-02-24T05:24:45.704Z,80.89
2018-02-24T05:27:13.171Z,81.00
2018-02-24T05:29:40.651Z,80.76
2018-02-24T05:32:08.106Z,80.83
2018-02-24T05:34:35.557Z,80.85
2018-02-24T05:37:03.029Z,80.50
2018-02-24T05:39:30.487Z,80.41
2018-02-24T05:41:58.082Z,80.40
2018-02-24T05:44:25.567Z,79.92
2018-02-24T05:46:53.026Z,79.82
2018-02-24T05:49:20.482Z,79.82
2018-02-24T05:51:48.042Z,80.08
2018-02-24T05:54:15.499Z,80.34
2018-02-24T05:56:43.093Z,80.54
2018-02-24T05:59:10.574Z,80.65
2018-02-24T06:01:38.029Z,80.68
2018-02-24T06:04:05.486Z,80.96
2018-02-24T06:06:32.961Z,80.96
2018-02-24T06:09:00.535Z,80.92
2018-02-24T06:11:28.015Z,80.89
2018-02-24T06:13:55.505Z,80.75
2018-02-24T06:16:23.013Z,80.62
2018-02-24T06:18:50.494Z,80.29
2018-02-24T06:21:18.025Z,79.73
2018-02-24T06:23:45.438Z,79.22
2018-02-24T06:26:12.984Z,78.10
2018-02-24T06:28:40.442Z,77.29
2018-02-24T06:31:07.902Z,77.10
2018-02-24T06:33:35.385Z,76.73
2018-02-24T06:36:02.830Z,76.56
2018-02-24T06:38:30.327Z,76.55
2018-02-24T06:40:57.793Z,76.09
2018-02-24T06:43:25.528Z,76.16
2018-02-24T06:45:53.010Z,76.28
2018-02-24T06:48:20.621Z,76.58
2018-02-24T06:50:48.070Z,76.32
2018-02-24T06:53:15.515Z,76.29
2018-02-24T06:55:43.026Z,75.78
2018-02-24T06:58:10.470Z,75.59
2018-02-24T07:00:37.954Z,75.32
2018-02-24T07:03:05.401Z,73.34
2018-02-24T07:05:32.851Z,72.74
2018-02-24T07:08:00.321Z,72.22
2018-02-24T07:10:27.769Z,71.56
2018-02-24T07:12:55.231Z,70.45
2018-02-24T07:15:22.810Z,69.57
2018-02-24T07:17:50.262Z,68.68
2018-02-24T07:20:17.744Z,66.77
2018-02-24T07:22:45.200Z,66.21
2018-02-24T07:25:12.661Z,66.30
2018-02-24T07:27:40.138Z,64.67
2018-02-24T07:30:07.596Z,63.35
2018-02-24T07:32:35.106Z,64.11
2018-02-24T07:35:02.596Z,63.63
2018-02-24T07:37:30.144Z,62.74
2018-02-24T07:39:57.619Z,62.25
2018-02-24T07:42:25.066Z,61.96
2018-02-24T07:44:52.518Z,61.64
2018-02-24T07:47:19.998Z,60.43
2018-02-24T07:49:47.450Z,59.89
2018-02-24T07:52:14.962Z,59.53
2018-02-24T07:54:42.518Z,58.53
2018-02-24T07:57:09.998Z,56.68
2018-02-24T07:59:37.446Z,57.10
2018-02-24T08:02:04.894Z,55.90
2018-02-24T08:04:32.396Z,55.41
2018-02-24T08:06:59.841Z,53.94
2018-02-24T08:09:27.310Z,53.69
2018-02-24T08:11:54.775Z,53.54
2018-02-24T08:14:22.242Z,54.13
2018-02-24T08:16:49.718Z,52.91
2018-02-24T08:19:17.161Z,52.71
2018-02-24T08:21:44.655Z,52.07
2018-02-24T08:24:12.138Z,51.75
2018-02-24T08:26:39.602Z,52.14
2018-02-24T08:29:07.122Z,52.08
2018-02-24T08:31:34.688Z,51.74
2018-02-24T08:34:02.138Z,51.29
2018-02-24T08:36:29.596Z,51.25
2018-02-24T08:38:57.066Z,50.51
2018-02-24T08:41:24.562Z,50.42
2018-02-24T08:43:52.019Z,49.63
2018-02-24T08:46:19.502Z,49.33
2018-02-24T08:48:46.958Z,48.54
2018-02-24T08:51:14.411Z,47.94
2018-02-24T08:53:41.878Z,47.33
2018-02-24T08:56:09.347Z,47.12
2018-02-24T08:58:36.794Z,47.09
2018-02-24T09:01:04.366Z,47.21
2018-02-24T09:03:31.813Z,47.11
2018-02-24T09:05:59.269Z,47.10
2018-02-24T09:08:26.846Z,46.73
2018-02-24T09:10:54.302Z,46.83
2018-02-24T09:13:21.762Z,46.82
2018-02-24T09:15:49.330Z,46.61
2018-02-24T09:18:16.875Z,47.18
2018-02-24T09:20:44.353Z,47.90
2018-02-24T09:23:11.842Z,47.87
2018-02-24T09:25:39.294Z,47.50
2018-02-24T09:28:06.742Z,47.99
2018-02-24T09:30:34.205Z,47.64
2018-02-24T09:33:01.752Z,47.32
2018-02-24T09:35:29.202Z,47.13
2018-02-24T09:37:56.721Z,47.18
2018-02-24T09:40:24.180Z,46.78
2018-02-24T09:42:51.625Z,46.80
2018-02-24T09:45:19.206Z,46.48
2018-02-24T09:47:46.720Z,46.13
2018-02-24T09:50:14.176Z,45.58
2018-02-24T09:52:41.650Z,45.08
2018-02-24T09:55:09.099Z,45.12
2018-02-24T09:57:37.060Z,45.46
2018-02-24T10:00:04.518Z,44.66
2018-02-24T10:02:31.993Z,44.68
2018-02-24T10:04:59.451Z,44.92
2018-02-24T10:07:26.934Z,44.83
2018-02-24T10:09:54.398Z,44.61
2018-02-24T10:12:21.867Z,44.25
2018-02-24T10:14:49.319Z,44.17
2018-02-24T10:17:16.865Z,43.99
2018-02-24T10:19:44.322Z,44.50
2018-02-24T10:22:11.776Z,45.00
2018-02-24T10:24:39.288Z,45.73
2018-02-24T10:27:06.754Z,45.64
2018-02-24T10:29:34.244Z,45.73
2018-02-24T10:32:01.695Z,45.64
2018-02-24T10:34:29.184Z,46.75
2018-02-24T10:36:56.633Z,46.72
2018-02-24T10:39:24.185Z,46.07
2018-02-24T10:41:51.662Z,45.99
2018-02-24T10:44:19.255Z,44.63
2018-02-24T10:46:46.782Z,44.14
2018-02-24T10:49:14.279Z,44.32
2018-02-24T10:51:41.735Z,43.94
2018-02-24T10:54:09.214Z,43.35
2018-02-24T10:56:36.662Z,44.12
2018-02-24T10:59:04.111Z,44.77
2018-02-24T11:01:31.593Z,45.00
2018-02-24T11:03:59.037Z,44.63
2018-02-24T11:06:26.492Z,41.90
2018-02-24T11:08:53.963Z,42.71
2018-02-24T11:11:21.455Z,44.20
2018-02-24T11:13:48.882Z,43.18
2018-02-24T11:16:16.343Z,41.95
2018-02-24T11:18:43.790Z,42.51
2018-02-24T11:21:11.259Z,41.95
2018-02-24T11:23:38.703Z,40.92
2018-02-24T11:26:06.154Z,41.45
2018-02-24T11:28:33.617Z,41.82
2018-02-24T11:31:01.086Z,42.08
2018-02-24T11:33:28.547Z,42.09
2018-02-24T11:35:55.990Z,40.94
2018-02-24T11:38:23.458Z,40.01
2018-02-24T11:40:50.906Z,40.47
2018-02-24T11:43:18.386Z,40.02
2018-02-24T11:45:45.892Z,38.62
2018-02-24T11:48:13.397Z,38.90
2018-02-24T11:50:40.948Z,38.87
2018-02-24T11:53:08.406Z,39.08
2018-02-24T11:55:35.866Z,39.28
2018-02-24T11:58:03.345Z,39.50
2018-02-24T12:00:30.793Z,39.80
2018-02-24T12:02:58.337Z,39.37
2018-02-24T12:05:25.909Z,39.15
2018-02-24T12:07:53.385Z,39.43
2018-02-24T12:10:20.913Z,39.30
2018-02-24T12:12:48.358Z,39.55
2018-02-24T12:15:15.882Z,39.42
2018-02-24T12:17:43.326Z,39.35
2018-02-24T12:20:10.766Z,39.36
2018-02-24T12:22:38.231Z,38.43
2018-02-24T12:25:05.679Z,38.78
2018-02-24T12:27:33.135Z,38.59
2018-02-24T12:30:00.621Z,38.53
2018-02-24T12:32:28.129Z,38.65
2018-02-24T12:34:55.589Z,38.09
2018-02-24T12:37:23.072Z,38.79
2018-02-24T12:39:50.614Z,39.71
2018-02-24T12:42:18.062Z,39.14
2018-02-24T12:44:45.530Z,38.91
2018-02-24T12:47:12.987Z,39.36
2018-02-24T12:49:40.446Z,38.96
2018-02-24T12:52:07.946Z,39.72
2018-02-24T12:54:35.446Z,40.29
2018-02-24T12:57:02.907Z,40.27
2018-02-24T12:59:30.412Z,40.06
2018-02-24T13:01:57.930Z,39.77
2018-02-24T13:04:25.478Z,39.79
2018-02-24T13:06:52.969Z,40.18
2018-02-24T13:09:20.494Z,40.31
2018-02-24T13:11:47.949Z,40.19
2018-02-24T13:14:15.450Z,40.75
2018-02-24T13:16:43.022Z,40.66
2018-02-24T13:19:10.472Z,40.28
2018-02-24T13:21:37.987Z,39.90
2018-02-24T13:24:05.543Z,40.07
2018-02-24T13:26:33.009Z,39.74
2018-02-24T13:29:00.466Z,39.51
2018-02-24T13:31:27.950Z,40.15
2018-02-24T13:33:55.454Z,40.26
2018-02-24T13:36:22.920Z,40.24
2018-02-24T13:38:50.402Z,39.77
2018-02-24T13:41:17.893Z,39.69
2018-02-24T13:43:45.353Z,40.24
2018-02-24T13:46:12.914Z,40.28
2018-02-24T13:48:40.415Z,40.33
2018-02-24T13:51:07.862Z,40.54
2018-02-24T13:53:35.315Z,40.54
2018-02-24T13:56:02.801Z,41.04
2018-02-24T13:58:30.335Z,41.52
2018-02-24T14:00:57.809Z,42.36
2018-02-24T14:03:25.381Z,42.46
2018-02-24T14:05:52.982Z,42.93
2018-02-24T14:08:20.541Z,43.13
2018-02-24T14:10:48.008Z,43.32
2018-02-24T14:13:15.514Z,43.13
2018-02-24T14:15:43.067Z,42.30
2018-02-24T14:18:10.545Z,41.89
2018-02-24T14:20:37.989Z,40.95
2018-02-24T14:23:05.556Z,41.21
2018-02-24T14:25:33.014Z,41.50
2018-02-24T14:28:00.467Z,41.74
2018-02-24T14:30:27.960Z,41.58
2018-02-24T14:32:55.421Z,42.04
2018-02-24T14:35:22.882Z,42.51
2018-02-24T14:37:50.437Z,43.25
2018-02-24T14:40:17.948Z,43.02
2018-02-24T14:42:45.504Z,42.97
2018-02-24T14:45:13.041Z,42.78
2018-02-24T14:47:40.466Z,42.97
2018-02-24T14:50:07.924Z,43.24
2018-02-24T14:52:35.441Z,42.49
2018-02-24T14:55:03.048Z,42.50
2018-02-24T14:57:30.550Z,42.67
2018-02-24T14:59:58.006Z,41.92
2018-02-24T15:02:25.467Z,41.97
2018-02-24T15:04:52.925Z,42.16
2018-02-24T15:07:20.375Z,42.15
2018-02-24T15:09:47.833Z,42.38
2018-02-24T15:12:15.303Z,42.02
2018-02-24T15:14:42.770Z,41.47
2018-02-24T15:17:10.259Z,41.50
2018-02-24T15:19:37.749Z,41.60
2018-02-24T15:22:05.214Z,41.50
2018-02-24T15:24:32.661Z,42.17
2018-02-24T15:27:00.153Z,42.67
2018-02-24T15:29:27.609Z,43.42
2018-02-24T15:31:55.062Z,43.48
2018-02-24T15:34:22.551Z,44.07
2018-02-24T15:36:50.062Z,44.62
2018-02-24T15:39:17.525Z,45.02
2018-02-24T15:41:45.003Z,44.45
2018-02-24T15:44:12.450Z,43.94
2018-02-24T15:46:39.903Z,43.71
2018-02-24T15:49:07.368Z,43.90
2018-02-24T15:51:34.892Z,44.12
2018-02-24T15:54:03.174Z,44.50
2018-02-24T15:56:30.621Z,44.78
2018-02-24T15:58:58.076Z,45.17
2018-02-24T16:01:25.558Z,45.20
2018-02-24T16:03:53.028Z,45.11
2018-02-24T16:06:20.497Z,45.28
2018-02-24T16:08:47.954Z,44.94
2018-02-24T16:11:15.434Z,44.76
2018-02-24T16:13:42.918Z,44.88
2018-02-24T16:16:10.371Z,45.00
2018-02-24T16:18:37.826Z,44.51
2018-02-24T16:21:05.291Z,44.38
2018-02-24T16:23:32.738Z,44.44
2018-02-24T16:26:00.284Z,44.93
2018-02-24T16:28:27.739Z,44.95
2018-02-24T16:30:55.193Z,45.36
2018-02-24T16:33:22.680Z,45.56
2018-02-24T16:35:50.131Z,45.88
2018-02-24T16:38:17.589Z,46.13
2018-02-24T16:40:45.085Z,46.29
2018-02-24T16:43:12.534Z,46.23
2018-02-24T16:45:39.978Z,46.38
2018-02-24T16:48:07.514Z,46.48
2018-02-24T16:50:34.968Z,45.95
2018-02-24T16:53:02.464Z,45.59
2018-02-24T16:55:30.018Z,45.34
2018-02-24T16:57:57.465Z,45.59
2018-02-24T17:00:24.918Z,45.68
2018-02-24T17:02:52.527Z,45.87
2018-02-24T17:05:19.981Z,46.09
2018-02-24T17:07:47.510Z,46.32
2018-02-24T17:10:14.978Z,46.67
2018-02-24T17:12:42.439Z,46.76
2018-02-24T17:15:09.931Z,46.88
2018-02-24T17:17:37.403Z,47.14
2018-02-24T17:20:04.855Z,46.97
2018-02-24T17:22:32.334Z,47.49
2018-02-24T17:24:59.814Z,47.53
2018-02-24T17:27:27.279Z,47.70
2018-02-24T17:29:54.767Z,47.97
2018-02-24T17:32:22.226Z,48.10
2018-02-24T17:34:49.674Z,48.10
2018-02-24T17:37:17.156Z,48.40
2018-02-24T17:39:44.658Z,48.52
2018-02-24T17:42:12.114Z,48.77
2018-02-24T17:44:39.678Z,48.96
2018-02-24T17:47:07.131Z,49.06
2018-02-24T17:49:34.602Z,49.02
2018-02-24T17:52:02.050Z,49.27
2018-02-24T17:54:29.498Z,49.33
2018-02-24T17:56:56.959Z,49.32
2018-02-24T17:59:24.401Z,49.54
2018-02-24T18:01:51.863Z,49.40
2018-02-24T18:04:19.329Z,49.48
2018-02-24T18:06:46.892Z,49.66
2018-02-24T18:09:14.364Z,49.72
2018-02-24T18:11:41.854Z,49.82
2018-02-24T18:14:09.363Z,49.67
2018-02-24T18:16:36.854Z,49.69
2018-02-24T18:19:04.316Z,49.87
2018-02-24T18:21:31.767Z,49.70
2018-02-24T18:23:59.450Z,49.91
2018-02-24T18:26:26.959Z,50.00
2018-02-24T18:28:54.419Z,49.69
2018-02-24T18:31:21.970Z,49.80
2018-02-24T18:33:49.892Z,49.93
2018-02-24T18:36:17.346Z,49.81
2018-02-24T18:38:44.812Z,49.77
2018-02-24T18:41:12.294Z,49.94
2018-02-24T18:43:39.774Z,50.06
2018-02-24T18:46:07.229Z,50.29
2018-02-24T18:48:34.685Z,50.48
2018-02-24T18:51:02.164Z,50.33
2018-02-24T18:53:29.610Z,50.43
2018-02-24T18:55:57.062Z,50.27
2018-02-24T18:58:24.542Z,50.44
2018-02-24T19:00:52.017Z,50.48
2018-02-24T19:03:19.473Z,50.70
2018-02-24T19:05:46.926Z,50.60
2018-02-24T19:08:14.397Z,50.26
2018-02-24T19:10:41.883Z,50.50
2018-02-24T19:13:09.334Z,50.39
2018-02-24T19:15:36.864Z,50.69
2018-02-24T19:18:04.342Z,50.95
2018-02-24T19:20:31.877Z,50.69
2018-02-24T19:22:59.325Z,50.81
2018-02-24T19:25:26.803Z,50.62
2018-02-24T19:27:54.306Z,50.15
2018-02-24T19:30:21.770Z,50.32
2018-02-24T19:32:49.248Z,50.08
2018-02-24T19:35:16.705Z,49.97
2018-02-24T19:37:44.178Z,49.99
2018-02-24T19:40:11.647Z,50.15
2018-02-24T19:42:39.098Z,50.17
2018-02-24T19:45:06.652Z,50.11
2018-02-24T19:47:34.172Z,50.32
2018-02-24T19:50:01.638Z,50.18
2018-02-24T19:52:29.187Z,50.57
2018-02-24T19:54:56.646Z,50.62
2018-02-24T19:57:24.123Z,50.69
2018-02-24T19:59:51.582Z,50.71
2018-02-24T20:02:19.027Z,50.90
2018-02-24T20:04:46.514Z,50.95
2018-02-24T20:07:13.979Z,51.00
2018-02-24T20:09:41.433Z,50.78
2018-02-24T20:12:08.926Z,51.14
2018-02-24T20:14:36.379Z,51.02
2018-02-24T20:17:03.843Z,51.44
2018-02-24T20:19:31.360Z,51.58
2018-02-24T20:21:58.867Z,51.67
2018-02-24T20:24:26.419Z,51.64
2018-02-24T20:26:53.891Z,51.89
2018-02-24T20:29:21.458Z,52.13
2018-02-24T20:31:48.947Z,52.13
2018-02-24T20:34:16.460Z,51.73
2018-02-24T20:36:43.914Z,51.95
2018-02-24T20:39:11.406Z,51.99
2018-02-24T20:41:38.857Z,52.12
2018-02-24T20:44:06.321Z,52.39
2018-02-24T20:46:33.810Z,52.53
2018-02-24T20:49:01.356Z,52.79
2018-02-24T20:51:28.810Z,52.98
2018-02-24T20:53:56.270Z,53.30
2018-02-24T20:56:23.783Z,53.55
2018-02-24T20:58:51.268Z,53.73
2018-02-24T21:01:18.805Z,53.81
2018-02-24T21:03:46.266Z,54.10
2018-02-24T21:09:04.115Z,54.44
2018-02-24T21:11:31.689Z,54.47
2018-02-24T21:13:59.142Z,54.63
2018-02-24T21:16:26.614Z,54.58
2018-02-24T21:18:54.147Z,54.41
2018-02-24T21:21:21.610Z,54.77
2018-02-24T21:23:49.205Z,54.76
2018-02-24T21:26:16.674Z,54.67
2018-02-24T21:28:44.158Z,54.62
2018-02-24T21:31:11.728Z,54.85
2018-02-24T21:33:39.321Z,54.75
2018-02-24T21:36:06.777Z,54.85
2018-02-24T21:38:34.267Z,54.64
2018-02-24T21:41:01.726Z,54.69
2018-02-24T21:43:29.190Z,54.62
2018-02-24T21:45:56.663Z,54.80
2018-02-24T21:48:24.132Z,54.70
2018-02-24T21:50:51.694Z,54.76
2018-02-24T21:53:19.158Z,54.63
2018-02-24T21:55:46.622Z,54.58
2018-02-24T21:58:14.119Z,54.84
2018-02-24T22:00:41.584Z,54.58
2018-02-24T22:03:09.047Z,54.69
2018-02-24T22:05:36.569Z,54.74
2018-02-24T22:08:04.016Z,54.68
2018-02-24T22:10:31.482Z,54.87
2018-02-24T22:12:59.015Z,54.85
2018-02-24T22:15:26.490Z,55.04
2018-02-24T22:17:53.974Z,54.89
2018-02-24T22:20:21.462Z,55.20
2018-02-24T22:22:48.915Z,55.14
2018-02-24T22:25:16.450Z,54.91
2018-02-24T22:27:43.954Z,55.12
2018-02-24T22:30:11.443Z,54.33
2018-02-24T22:32:38.934Z,54.25
2018-02-24T22:35:06.391Z,54.34
2018-02-24T22:37:33.889Z,54.48
2018-02-24T22:40:01.378Z,54.70
2018-02-24T22:42:28.914Z,54.93
2018-02-24T22:44:56.410Z,54.97
2018-02-24T22:47:23.893Z,55.00
2018-02-24T22:49:51.350Z,55.23
2018-02-24T22:52:18.813Z,55.12
2018-02-24T22:54:46.294Z,54.89
2018-02-24T22:57:13.762Z,55.46
2018-02-24T22:59:41.360Z,55.32
2018-02-24T23:02:08.830Z,55.28
2018-02-24T23:04:36.307Z,55.31
2018-02-24T23:07:03.762Z,55.37
2018-02-24T23:09:31.287Z,55.78
2018-02-24T23:11:58.788Z,56.17
2018-02-24T23:14:26.259Z,56.84
2018-02-24T23:16:53.718Z,57.08
2018-02-24T23:19:21.275Z,56.54
2018-02-24T23:21:48.882Z,56.66
2018-02-24T23:24:16.426Z,57.18
2018-02-24T23:26:43.946Z,57.28
2018-02-24T23:29:11.423Z,57.45
2018-02-24T23:31:38.894Z,56.96
2018-02-24T23:34:06.377Z,56.74
2018-02-24T23:36:33.840Z,57.79
2018-02-24T23:39:01.357Z,57.21
2018-02-24T23:41:28.909Z,57.74
2018-02-24T23:43:56.380Z,57.77
2018-02-24T23:46:23.872Z,58.50
2018-02-24T23:48:51.354Z,59.55
2018-02-24T23:51:18.814Z,58.59
2018-02-24T23:53:46.289Z,58.18
2018-02-24T23:56:13.749Z,58.48
2018-02-24T23:58:41.300Z,58.61
